St. Day, United Kingdom
Current Conditions -  °F | °C
As of 4:50 PM on Wednesday 26 Nov 2014 (Local Time) from EGDR Reporting Station
Haze Haze  
Wind Chill: 44°   Ceiling: 2700
Heat Index: 46°   Visibility: 6mi
Dew Point: 41°   Wind: 5mph
Humidity: 81%   Direction: 330°NNW
Pressure: 29.83"   Gusts: NA
Location:  50.24°N, 5.19°W
Report Text: EGDR 261650Z 33004KT 9999 HZ FEW012 SCT024 BKN027 08/05 Q1010 WHT TEMPO SCT010 GRN
Loading
Personal Weather Stations






























Interactive Weather Map New forecast layout! Learn more

10-Day Weather Forecast

Advertisements
Track Severe Weather on mobile